Hickory Valley, Louisiana
Current Conditions -  °F | °C
As of 4:15 AM on Friday 31 Oct 2014 (Local Time) from KRSN Reporting Station
Clear Clear  
Wind Chill: 13°   Ceiling: Unl
Heat Index: 13°   Visibility: 10mi
Dew Point:   Wind: 3mph
Humidity: 73%   Direction: 320°NW
Pressure: 30.09"   Gusts: NA
Location:  32.0547°N, 92.4144°W
Report Text: KRSN 310915Z AUTO 32003KT 10SM CLR 13/08 A3009 RMK AO2 T01250078
Loading
Personal Weather Stations






























Interactive Weather Map
Tropical Storm Tracking
New forecast layout! Learn more

10-Day Weather Forecast

Advertisements
Track Severe Weather on mobile